Thunder radar more information blitzortung!


Radar de pluja more information rain snow radar


Visita la nostra xarxa de llocs de meteo:

Template documentation
and downloads

And another site



Wind From: 11-12-2017 11:00 Until: 14:59 warning for: Wind Level: Yellow info button

Pagina Historial Weather Underground text

Diari Resum Setembre 28, 2017 Unitats:  Mètric    Imperial   Tant
« Previous Dia
SegĂźent Dia »
Diari Setmana Mensual Anual Personalitzada
  Maxima: Minima: Media:
Temperatura: 25.4 °C 15.3 °C 21.3 °C
Punt de rosada: 16.6 °C 13.2 °C 14.8 °C
Humitat: 88 % 54 % 68 %
Wind Speed: 16.7 km/h 0.0 km/h 5.6 km/h
RĂ fegues de vent: 16.7 km/h - -
Vent:- - SSE
Pression baro: 1028.0 hPa 1022.9 hPa -
Precipitacions: 0.0 mm    
Historical Graphs
 
 
Dades de taula per Setembre 28, 2017
Temps Temperatura Punt de rosada Pression baro Vent Wind Speed RĂ fegues de vent Humitat Rainfall Rate (Hourly)
00:03 17.7 °C 13.6 °C 1024.9 hPa Calm     77 % 0.0 mm
01:35 16.0 °C 13.7 °C 1024.9 hPa Calm   3.2 km/h 86 % 0.0 mm
01:45 15.7 °C 13.2 °C 1024.9 hPa WSW 1.6 km/h 3.2 km/h 85 % 0.0 mm
01:55 15.8 °C 13.4 °C 1026.0 hPa Calm   3.2 km/h 86 % 0.0 mm
02:05 16.0 °C 13.8 °C 1026.0 hPa Calm     87 % 0.0 mm
02:15 16.0 °C 13.8 °C 1026.0 hPa NNE 1.6 km/h 3.2 km/h 87 % 0.0 mm
02:25 15.8 °C 13.4 °C 1024.9 hPa NE 1.6 km/h 3.2 km/h 86 % 0.0 mm
02:35 15.6 °C 13.3 °C 1024.9 hPa WSW 1.6 km/h 3.2 km/h 86 % 0.0 mm
02:45 15.6 °C 13.4 °C 1026.0 hPa Calm   1.6 km/h 87 % 0.0 mm
02:55 15.6 °C 13.4 °C 1026.0 hPa Calm     87 % 0.0 mm
03:05 15.6 °C 13.6 °C 1026.0 hPa Calm     88 % 0.0 mm
03:15 15.6 °C 13.6 °C 1026.0 hPa Calm     88 % 0.0 mm
03:25 15.3 °C 13.2 °C 1026.0 hPa WNW 1.6 km/h 3.2 km/h 87 % 0.0 mm
03:35 15.6 °C 13.6 °C 1026.0 hPa Calm   3.2 km/h 88 % 0.0 mm
03:45 15.9 °C 13.9 °C 1026.0 hPa WSW 1.6 km/h 3.2 km/h 88 % 0.0 mm
03:55 16.1 °C 13.9 °C 1026.0 hPa SW 3.2 km/h 3.2 km/h 87 % 0.0 mm
04:05 16.3 °C 14.1 °C 1026.0 hPa SW 1.6 km/h 3.2 km/h 87 % 0.0 mm
04:15 16.5 °C 14.5 °C 1026.0 hPa Calm   1.6 km/h 88 % 0.0 mm
04:25 16.8 °C 14.6 °C 1026.0 hPa Calm     87 % 0.0 mm
04:35 16.9 °C 14.7 °C 1026.0 hPa Calm   3.2 km/h 87 % 0.0 mm
04:45 17.1 °C 14.7 °C 1026.0 hPa Calm   3.2 km/h 86 % 0.0 mm
04:55 17.3 °C 14.8 °C 1026.0 hPa NE 3.2 km/h 3.2 km/h 85 % 0.0 mm
05:05 17.4 °C 14.7 °C 1026.0 hPa NE 1.6 km/h 1.6 km/h 84 % 0.0 mm
05:15 17.8 °C 14.9 °C 1027.0 hPa NE 3.2 km/h 4.8 km/h 83 % 0.0 mm
05:25 18.1 °C 15.0 °C 1027.0 hPa NE 1.6 km/h 3.2 km/h 82 % 0.0 mm
05:35 18.2 °C 14.9 °C 1027.0 hPa NNE 3.2 km/h 6.4 km/h 81 % 0.0 mm
05:45 18.4 °C 14.9 °C 1027.0 hPa NE 4.8 km/h 6.4 km/h 80 % 0.0 mm
10:47 18.8 °C 15.1 °C 1027.0 hPa ENE 5.6 km/h 5.6 km/h 79 % 0.0 mm
10:52 19.0 °C 15.1 °C 1027.0 hPa WNW 2.3 km/h 2.3 km/h 78 % 0.0 mm
10:57 19.2 °C 15.3 °C 1027.0 hPa ENE 3.7 km/h 3.7 km/h 78 % 0.0 mm
11:02 19.3 °C 15.2 °C 1028.0 hPa NNW 5.6 km/h 5.6 km/h 77 % 0.0 mm
11:07 19.5 °C 15.3 °C 1028.0 hPa NNE 3.7 km/h 3.7 km/h 77 % 0.0 mm
11:12 19.6 °C 15.4 °C 1028.0 hPa ENE 6.9 km/h 6.9 km/h 77 % 0.0 mm
11:17 19.9 °C 15.6 °C 1028.0 hPa ENE 5.6 km/h 5.6 km/h 76 % 0.0 mm
11:19 20.0 °C 15.7 °C 1028.0 hPa NE 7.4 km/h 7.4 km/h 76 % 0.0 mm
11:24 20.5 °C 15.7 °C 1028.0 hPa NNE 7.4 km/h 7.4 km/h 74 % 0.0 mm
11:29 20.8 °C 16.0 °C 1028.0 hPa NE 9.5 km/h 9.5 km/h 74 % 0.0 mm
11:34 21.2 °C 16.4 °C 1027.0 hPa NNE 7.4 km/h 7.4 km/h 74 % 0.0 mm
11:39 21.4 °C 16.3 °C 1027.0 hPa ENE 5.8 km/h 5.8 km/h 73 % 0.0 mm
11:44 21.5 °C 16.2 °C 1027.0 hPa East 4.2 km/h 4.2 km/h 72 % 0.0 mm
11:54 22.3 °C 16.6 °C 1027.0 hPa ESE 5.6 km/h 5.6 km/h 70 % 0.0 mm
11:59 22.0 °C 16.3 °C 1027.0 hPa ENE 7.4 km/h 7.4 km/h 70 % 0.0 mm
12:04 22.1 °C 16.2 °C 1027.0 hPa ESE 7.4 km/h 7.4 km/h 69 % 0.0 mm
12:09 22.1 °C 16.2 °C 1027.0 hPa SW 3.7 km/h 3.7 km/h 69 % 0.0 mm
12:14 22.4 °C 16.2 °C 1027.0 hPa ESE 5.6 km/h 5.6 km/h 68 % 0.0 mm
12:19 22.2 °C 16.0 °C 1027.0 hPa NNW 5.6 km/h 5.6 km/h 68 % 0.0 mm
12:20 22.2 °C 16.0 °C 1027.0 hPa NNW 3.7 km/h 3.7 km/h 68 % 0.0 mm
12:25 22.5 °C 16.1 °C 1027.0 hPa North 3.7 km/h 3.7 km/h 67 % 0.0 mm
12:30 22.7 °C 16.3 °C 1027.0 hPa West 3.9 km/h 3.9 km/h 67 % 0.0 mm
12:35 23.3 °C 16.6 °C 1026.0 hPa ESE 2.6 km/h   66 % 0.0 mm
12:40 23.3 °C 16.1 °C 1026.0 hPa ESE 9.3 km/h 9.3 km/h 64 % 0.0 mm
12:45 23.1 °C 15.9 °C 1026.0 hPa East 7.9 km/h 7.9 km/h 64 % 0.0 mm
12:50 23.0 °C 15.8 °C 1026.0 hPa SSE 7.4 km/h 7.4 km/h 64 % 0.0 mm
12:55 23.6 °C 16.4 °C 1026.0 hPa ENE 3.7 km/h 3.7 km/h 64 % 0.0 mm
13:00 23.6 °C 16.2 °C 1026.0 hPa East 5.6 km/h 5.6 km/h 63 % 0.0 mm
13:05 23.8 °C 16.3 °C 1024.9 hPa SSE 1.9 km/h 1.9 km/h 63 % 0.0 mm
13:10 24.6 °C 16.6 °C 1024.9 hPa SSE 3.7 km/h 3.7 km/h 61 % 0.0 mm
13:15 24.3 °C 15.5 °C 1024.9 hPa SSE 9.3 km/h 9.3 km/h 58 % 0.0 mm
13:20 24.4 °C 16.1 °C 1026.0 hPa South 3.7 km/h 3.7 km/h 60 % 0.0 mm
13:25 24.8 °C 16.2 °C 1026.0 hPa ENE 9.3 km/h 9.3 km/h 59 % 0.0 mm
13:26 24.7 °C 16.2 °C 1026.0 hPa East 9.3 km/h 9.3 km/h 59 % 0.0 mm
13:31 24.5 °C 15.7 °C 1026.0 hPa ENE 5.6 km/h 5.6 km/h 58 % 0.0 mm
13:36 24.3 °C 15.2 °C 1026.0 hPa ESE 7.4 km/h 7.6 km/h 57 % 0.0 mm
13:41 23.9 °C 15.4 °C 1026.0 hPa ESE 9.7 km/h 9.7 km/h 59 % 0.0 mm
13:46 24.3 °C 15.2 °C 1026.0 hPa East 7.9 km/h 9.5 km/h 57 % 0.0 mm
13:51 24.2 °C 15.2 °C 1026.0 hPa ESE 12.2 km/h 12.2 km/h 57 % 0.0 mm
13:56 24.3 °C 15.2 °C 1026.0 hPa East 10.0 km/h 10.0 km/h 57 % 0.0 mm
14:01 24.6 °C 15.5 °C 1026.0 hPa ENE 9.3 km/h 9.3 km/h 57 % 0.0 mm
14:06 24.9 °C 15.5 °C 1026.0 hPa ESE 11.1 km/h 11.1 km/h 56 % 0.0 mm
14:11 24.2 °C 14.9 °C 1026.0 hPa East 13.0 km/h 13.0 km/h 56 % 0.0 mm
14:16 24.3 °C 14.9 °C 1026.0 hPa ESE 16.7 km/h 16.7 km/h 56 % 0.0 mm
14:21 24.3 °C 14.7 °C 1026.0 hPa ESE 16.7 km/h 16.7 km/h 55 % 0.0 mm
14:26 24.3 °C 14.9 °C 1026.0 hPa East 13.0 km/h 13.0 km/h 56 % 0.0 mm
14:36 24.6 °C 15.2 °C 1026.0 hPa ESE 11.1 km/h 11.1 km/h 56 % 0.0 mm
14:41 24.3 °C 15.2 °C 1026.0 hPa ESE 10.3 km/h 10.3 km/h 57 % 0.0 mm
14:46 24.7 °C 15.6 °C 1024.9 hPa SSE 13.0 km/h 13.0 km/h 57 % 0.0 mm
14:51 25.1 °C 15.7 °C 1024.9 hPa SSE 5.6 km/h 5.6 km/h 56 % 0.0 mm
14:56 25.2 °C 15.8 °C 1024.9 hPa East 11.1 km/h 11.1 km/h 56 % 0.0 mm
15:01 24.8 °C 15.7 °C 1024.9 hPa South 13.0 km/h 13.0 km/h 57 % 0.0 mm
15:06 24.9 °C 15.5 °C 1024.9 hPa SSW 7.4 km/h 7.4 km/h 56 % 0.0 mm
15:11 24.8 °C 15.7 °C 1024.9 hPa SW 12.6 km/h 12.6 km/h 57 % 0.0 mm
15:16 24.6 °C 15.5 °C 1024.9 hPa ENE 6.4 km/h 6.4 km/h 57 % 0.0 mm
15:21 24.3 °C 15.2 °C 1024.9 hPa ESE 9.5 km/h 9.5 km/h 57 % 0.0 mm
15:26 24.3 °C 15.5 °C 1024.9 hPa ESE 9.7 km/h 9.7 km/h 58 % 0.0 mm
15:31 24.3 °C 15.2 °C 1024.9 hPa ESE 11.1 km/h 11.1 km/h 57 % 0.0 mm
15:36 23.8 °C 15.3 °C 1024.9 hPa ESE 11.4 km/h 11.4 km/h 59 % 0.0 mm
15:41 23.6 °C 15.1 °C 1024.9 hPa ESE 9.3 km/h 9.3 km/h 59 % 0.0 mm
15:46 23.5 °C 15.0 °C 1023.9 hPa ESE 9.3 km/h 9.3 km/h 59 % 0.0 mm
15:51 23.7 °C 15.2 °C 1023.9 hPa ESE 5.6 km/h 5.6 km/h 59 % 0.0 mm
15:56 23.5 °C 15.0 °C 1023.9 hPa East 13.0 km/h 13.0 km/h 59 % 0.0 mm
16:01 23.7 °C 15.5 °C 1023.9 hPa SSW 5.6 km/h 5.6 km/h 60 % 0.0 mm
16:06 23.6 °C 15.4 °C 1023.9 hPa ESE 9.3 km/h 9.3 km/h 60 % 0.0 mm
16:11 23.4 °C 15.2 °C 1023.9 hPa East 9.3 km/h 9.3 km/h 60 % 0.0 mm
16:16 23.4 °C 15.2 °C 1023.9 hPa ESE 9.3 km/h 9.3 km/h 60 % 0.0 mm
16:21 23.5 °C 15.3 °C 1023.9 hPa East 7.6 km/h 7.6 km/h 60 % 0.0 mm
16:26 23.3 °C 15.1 °C 1023.9 hPa East 7.4 km/h 7.4 km/h 60 % 0.0 mm
16:31 23.3 °C 15.1 °C 1024.9 hPa East 13.0 km/h 13.0 km/h 60 % 0.0 mm
16:36 23.3 °C 15.1 °C 1024.9 hPa ESE 9.5 km/h 9.5 km/h 60 % 0.0 mm
16:41 23.3 °C 15.1 °C 1024.9 hPa ESE 11.1 km/h 11.1 km/h 60 % 0.0 mm
16:51 23.5 °C 15.3 °C 1023.9 hPa South 7.4 km/h 7.4 km/h 60 % 0.0 mm
16:56 23.7 °C 15.2 °C 1023.9 hPa South 7.4 km/h 7.4 km/h 59 % 0.0 mm
17:01 23.7 °C 15.2 °C 1023.9 hPa South 5.6 km/h 5.6 km/h 59 % 0.0 mm
17:06 23.6 °C 15.1 °C 1023.9 hPa East 5.6 km/h 5.6 km/h 59 % 0.0 mm
17:07 23.6 °C 15.1 °C 1023.9 hPa ESE 6.1 km/h 6.1 km/h 59 % 0.0 mm
17:12 23.5 °C 15.0 °C 1023.9 hPa ENE 7.4 km/h 7.4 km/h 59 % 0.0 mm
17:17 23.6 °C 14.8 °C 1023.9 hPa ESE 7.4 km/h 7.4 km/h 58 % 0.0 mm
17:22 23.9 °C 15.4 °C 1023.9 hPa SE 7.4 km/h 7.4 km/h 59 % 0.0 mm
17:27 24.2 °C 15.2 °C 1023.9 hPa South 7.4 km/h 7.4 km/h 57 % 0.0 mm
17:32 24.3 °C 15.2 °C 1023.9 hPa North 3.7 km/h 3.7 km/h 57 % 0.0 mm
17:37 24.6 °C 15.5 °C 1023.9 hPa WSW 5.8 km/h 5.8 km/h 57 % 0.0 mm
17:42 24.9 °C 15.5 °C 1023.9 hPa SW 7.4 km/h 7.4 km/h 56 % 0.0 mm
17:47 25.3 °C 15.3 °C 1023.9 hPa SSW 7.4 km/h 7.4 km/h 54 % 0.0 mm
17:52 25.4 °C 15.4 °C 1023.9 hPa SSW 7.4 km/h 7.4 km/h 54 % 0.0 mm
17:57 25.1 °C 15.1 °C 1023.9 hPa SSW 11.1 km/h 11.1 km/h 54 % 0.0 mm
18:02 24.7 °C 15.1 °C 1023.9 hPa SW 7.4 km/h 7.4 km/h 55 % 0.0 mm
18:07 24.9 °C 14.9 °C 1023.9 hPa West 7.4 km/h 7.4 km/h 54 % 0.0 mm
18:12 24.9 °C 14.9 °C 1023.9 hPa South 4.2 km/h 4.2 km/h 54 % 0.0 mm
18:17 24.9 °C 14.9 °C 1023.9 hPa SSW 7.4 km/h 7.4 km/h 54 % 0.0 mm
18:22 24.7 °C 14.8 °C 1023.9 hPa SW 14.8 km/h 14.8 km/h 54 % 0.0 mm
18:27 24.6 °C 14.7 °C 1023.9 hPa SW 9.3 km/h 9.3 km/h 54 % 0.0 mm
18:32 24.5 °C 14.6 °C 1023.9 hPa SW 7.4 km/h 7.4 km/h 54 % 0.0 mm
18:37 24.4 °C 14.5 °C 1023.9 hPa SSW 9.3 km/h 9.3 km/h 54 % 0.0 mm
18:42 24.2 °C 14.6 °C 1023.9 hPa SW 9.3 km/h 9.3 km/h 55 % 0.0 mm
18:47 23.8 °C 14.5 °C 1023.9 hPa SW 7.4 km/h 7.4 km/h 56 % 0.0 mm
18:52 23.8 °C 14.5 °C 1023.9 hPa SSW 7.4 km/h 7.4 km/h 56 % 0.0 mm
18:57 23.7 °C 14.4 °C 1023.9 hPa SSE 5.6 km/h 5.6 km/h 56 % 0.0 mm
19:02 23.5 °C 14.2 °C 1023.9 hPa SW 9.3 km/h 9.3 km/h 56 % 0.0 mm
19:07 23.2 °C 14.2 °C 1023.9 hPa WSW 5.6 km/h 5.6 km/h 57 % 0.0 mm
19:12 22.9 °C 13.9 °C 1023.9 hPa SW 5.6 km/h 5.6 km/h 57 % 0.0 mm
19:17 22.7 °C 13.7 °C 1023.9 hPa SW 7.6 km/h 7.6 km/h 57 % 0.0 mm
19:22 22.4 °C 13.7 °C 1023.9 hPa South 9.3 km/h 9.3 km/h 58 % 0.0 mm
19:27 22.2 °C 13.6 °C 1023.9 hPa SW 9.5 km/h 9.5 km/h 58 % 0.0 mm
19:29 22.1 °C 13.7 °C 1023.9 hPa SW 11.1 km/h 11.1 km/h 59 % 0.0 mm
19:34 21.9 °C 13.8 °C 1022.9 hPa WSW 9.5 km/h 9.5 km/h 60 % 0.0 mm
19:39 21.7 °C 13.8 °C 1022.9 hPa SSW 7.4 km/h 7.4 km/h 61 % 0.0 mm
19:44 21.5 °C 13.7 °C 1022.9 hPa South 6.4 km/h 6.4 km/h 61 % 0.0 mm
19:49 21.3 °C 13.7 °C 1023.9 hPa SW 7.4 km/h 7.4 km/h 62 % 0.0 mm
19:54 21.2 °C 13.9 °C 1023.9 hPa SW 7.4 km/h 7.4 km/h 63 % 0.0 mm
19:59 21.0 °C 13.7 °C 1023.9 hPa SW 11.1 km/h 11.1 km/h 63 % 0.0 mm
20:04 20.9 °C 13.8 °C 1022.9 hPa SSW 5.6 km/h 5.6 km/h 64 % 0.0 mm
20:09 20.8 °C 14.0 °C 1022.9 hPa WSW 7.4 km/h 7.4 km/h 65 % 0.0 mm
20:14 20.7 °C 13.9 °C 1022.9 hPa SW 7.4 km/h 7.4 km/h 65 % 0.0 mm
20:19 20.6 °C 14.0 °C 1022.9 hPa SW 5.6 km/h 5.6 km/h 66 % 0.0 mm
20:24 20.5 °C 13.9 °C 1022.9 hPa West 5.6 km/h 5.6 km/h 66 % 0.0 mm
20:25 20.5 °C 13.9 °C 1022.9 hPa WSW 5.6 km/h 5.6 km/h 66 % 0.0 mm
20:30 20.4 °C 14.1 °C 1022.9 hPa SW 3.9 km/h 3.9 km/h 67 % 0.0 mm
20:35 20.3 °C 13.9 °C 1022.9 hPa SW 3.9 km/h 4.2 km/h 67 % 0.0 mm
20:40 20.2 °C 14.1 °C 1022.9 hPa SW 5.6 km/h 5.6 km/h 68 % 0.0 mm
20:45 20.1 °C 14.0 °C 1022.9 hPa South 9.3 km/h 9.3 km/h 68 % 0.0 mm
20:50 20.0 °C 14.1 °C 1022.9 hPa SSW 5.6 km/h 5.6 km/h 69 % 0.0 mm
20:55 20.0 °C 14.1 °C 1022.9 hPa SW 5.6 km/h 5.6 km/h 69 % 0.0 mm
21:00 19.9 °C 14.5 °C 1022.9 hPa WSW 3.9 km/h 3.9 km/h 71 % 0.0 mm
21:05 19.8 °C 14.4 °C 1023.9 hPa SSW 5.6 km/h 5.6 km/h 71 % 0.0 mm
21:10 19.8 °C 14.4 °C 1023.9 hPa WSW 3.7 km/h 4.2 km/h 71 % 0.0 mm
21:15 19.7 °C 14.5 °C 1023.9 hPa SW 5.0 km/h 5.0 km/h 72 % 0.0 mm
21:20 19.6 °C 14.4 °C 1023.9 hPa SW 4.2 km/h 4.2 km/h 72 % 0.0 mm
21:25 19.6 °C 14.4 °C 1023.9 hPa SW 3.9 km/h 3.9 km/h 72 % 0.0 mm
21:30 19.5 °C 14.6 °C 1023.9 hPa SW 3.2 km/h 3.2 km/h 73 % 0.0 mm
21:35 19.5 °C 14.6 °C 1023.9 hPa WSW 1.9 km/h 1.9 km/h 73 % 0.0 mm
21:40 19.4 °C 14.4 °C 1023.9 hPa Calm     73 % 0.0 mm
21:45 19.3 °C 14.3 °C 1023.9 hPa Calm     73 % 0.0 mm
21:50 19.3 °C 14.6 °C 1024.9 hPa Calm     74 % 0.0 mm
21:55 19.2 °C 14.4 °C 1024.9 hPa NW 1.4 km/h   74 % 0.0 mm
22:00 19.1 °C 14.3 °C 1024.9 hPa Calm     74 % 0.0 mm
22:05 19.0 °C 14.3 °C 1024.9 hPa NNW 1.9 km/h 1.9 km/h 74 % 0.0 mm
22:10 19.0 °C 14.3 °C 1024.9 hPa Calm     74 % 0.0 mm
22:15 19.0 °C 14.3 °C 1024.9 hPa WNW 2.6 km/h   74 % 0.0 mm
22:20 19.0 °C 14.3 °C 1024.9 hPa West 1.9 km/h 2.3 km/h 74 % 0.0 mm
22:25 18.9 °C 14.6 °C 1024.9 hPa West 1.4 km/h   76 % 0.0 mm
22:30 18.9 °C 14.6 °C 1024.9 hPa Calm     76 % 0.0 mm
22:35 18.8 °C 14.5 °C 1026.0 hPa Calm     76 % 0.0 mm
22:40 18.7 °C 14.4 °C 1026.0 hPa Calm     76 % 0.0 mm
22:45 18.6 °C 14.3 °C 1026.0 hPa Calm     76 % 0.0 mm
22:50 18.5 °C 14.4 °C 1026.0 hPa Calm     77 % 0.0 mm
22:55 18.4 °C 14.3 °C 1026.0 hPa Calm     77 % 0.0 mm
23:00 18.3 °C 14.2 °C 1026.0 hPa West 1.9 km/h 1.9 km/h 77 % 0.0 mm
23:06 18.2 °C 14.1 °C 1026.0 hPa West 1.9 km/h 1.9 km/h 77 % 0.0 mm
23:11 18.2 °C 14.1 °C 1026.0 hPa West 1.4 km/h   77 % 0.0 mm
23:16 18.1 °C 14.0 °C 1026.0 hPa West 1.9 km/h 1.9 km/h 77 % 0.0 mm
23:21 18.0 °C 13.9 °C 1026.0 hPa West 1.9 km/h 1.9 km/h 77 % 0.0 mm
23:26 18.0 °C 14.1 °C 1026.0 hPa Calm     78 % 0.0 mm
23:31 18.0 °C 14.1 °C 1026.0 hPa Calm     78 % 0.0 mm
23:36 17.9 °C 14.0 °C 1026.0 hPa Calm     78 % 0.0 mm
23:41 17.9 °C 14.0 °C 1026.0 hPa Calm     78 % 0.0 mm
23:46 17.9 °C 14.0 °C 1026.0 hPa Calm     78 % 0.0 mm
23:51 17.8 °C 14.1 °C 1026.0 hPa Calm     79 % 0.0 mm
23:56 17.7 °C 14.0 °C 1026.0 hPa NNW 2.3 km/h 2.3 km/h 79 % 0.0 mm
Meteo Sesrovires
Elogis d' Weather Underground - 3.5 mb

Guio original per  Jim McMurry - jmcmurry@mwt.net Adaptat per a la plantilla per  Wim van der Kuil - Leuven-Template.eu

Trobareu la nostra informacio del temps tambe a:

Weather Underground

AWEKAS